| time (UTC) | temp C | wind direction | speed KPH | gust KPH | rain 1hr cm | rain 24hr cm | rain mn cm | humidity % | barometer mb |
| 20260504151017 | 8 | 290 | 22.5 | 33.8 | 0.00 | 0.00 | 0.00 | 56 | 1015.6 |
| 20260504150517 | 8 | 289 | 25.7 | 33.8 | 0.00 | 0.00 | 0.00 | 56 | 1015.5 |
| 20260504141022 | 7 | 263 | 16.1 | 25.7 | 0.00 | 0.00 | 0.00 | 66 | 1015.8 |
| 20260504140520 | 7 | 248 | 17.7 | 27.4 | 0.00 | 0.00 | 0.00 | 67 | 1015.7 |
| 20260504130517 | 6 | 248 | 14.5 | 20.9 | 0.00 | 0.00 | 0.00 | 70 | 1015.6 |
| 20260504120107 | 6 | 244 | 12.9 | 16.1 | 0.00 | 0.00 | 0.00 | 69 | 1015.8 |
| 20260504110515 | 6 | 229 | 11.3 | 14.5 | 0.00 | 0.00 | 0.00 | 67 | 1015.8 |
| 20260504100510 | 6 | 283 | 8.0 | 14.5 | 0.00 | 0.00 | 0.00 | 65 | 1016.1 |
| 20260504081538 | 8 | 37 | 30.6 | 40.2 | 0.00 | 0.00 | 0.00 | 60 | 1015.4 |
| 20260504081013 | 8 | 44 | 27.4 | 43.5 | 0.00 | 0.00 | 0.00 | 59 | 1015.2 |
| 20260504080515 | 8 | 32 | 25.7 | 43.5 | 0.00 | 0.00 | 0.00 | 59 | 1015.2 |
| 20260504050515 | 12 | 28 | 38.6 | 59.5 | 0.00 | 0.00 | 0.00 | 40 | 1010.5 |
| 20260504045516 | 12 | 26 | 48.3 | 66.0 | 0.00 | 0.00 | 0.00 | 39 | 1010.6 |
| 20260504045013 | 12 | 17 | 43.5 | 54.7 | 0.00 | 0.00 | 0.00 | 40 | 1010.6 |
| 20260504044542 | 13 | 29 | 38.6 | 51.5 | 0.00 | 0.00 | 0.00 | 41 | 1010.0 |
| 20260504044013 | 13 | 30 | 37.0 | 48.3 | 0.00 | 0.00 | 0.00 | 40 | 1009.9 |
| 20260504043511 | 14 | 21 | 35.4 | 46.7 | 0.00 | 0.00 | 0.00 | 39 | 1010.0 |
| 20260504043041 | 14 | 28 | 35.4 | 45.1 | 0.00 | 0.00 | 0.00 | 39 | 1010.0 |
| 20260504042515 | 14 | 34 | 29.0 | 38.6 | 0.00 | 0.00 | 0.00 | 39 | 1009.7 |
| 20260504042013 | 14 | 32 | 27.4 | 35.4 | 0.00 | 0.00 | 0.00 | 38 | 1009.7 |
| 20260504041536 | 14 | 30 | 22.5 | 33.8 | 0.00 | 0.00 | 0.00 | 39 | 1009.6 |
| 20260504041014 | 14 | 34 | 19.3 | 25.7 | 0.00 | 0.00 | 0.00 | 39 | 1009.4 |
| 20260504040513 | 13 | 13 | 17.7 | 25.7 | 0.00 | 0.00 | 0.00 | 38 | 1009.5 |
| 20260504040038 | 13 | 20 | 16.1 | 25.7 | 0.00 | 0.00 | 0.00 | 37 | 1009.5 |
| 20260504035513 | 13 | 12 | 17.7 | 25.7 | 0.00 | 0.00 | 0.00 | 37 | 1009.1 |
| 20260504035015 | 14 | 355 | 16.1 | 25.7 | 0.00 | 0.00 | 0.00 | 37 | 1009.1 |
| 20260504034540 | 14 | 9 | 17.7 | 35.4 | 0.00 | 0.00 | 0.00 | 37 | 1009.1 |
| 20260504034012 | 15 | 23 | 25.7 | 35.4 | 0.00 | 0.00 | 0.00 | 37 | 1009.0 |
| 20260504033513 | 15 | 19 | 25.7 | 40.2 | 0.00 | 0.00 | 0.00 | 37 | 1008.9 |
| 20260504033035 | 15 | 32 | 24.1 | 40.2 | 0.00 | 0.00 | 0.00 | 38 | 1008.7 |
| 20260504032514 | 15 | 33 | 25.7 | 35.4 | 0.00 | 0.00 | 0.00 | 38 | 1008.5 |
| 20260504032015 | 15 | 14 | 24.1 | 35.4 | 0.00 | 0.00 | 0.00 | 39 | 1008.4 |
| 20260504031537 | 15 | 38 | 25.7 | 38.6 | 0.00 | 0.00 | 0.00 | 38 | 1008.4 |
| 20260504031015 | 15 | 28 | 29.0 | 41.8 | 0.00 | 0.00 | 0.00 | 38 | 1008.3 |
| 20260504030515 | 15 | 26 | 33.8 | 41.8 | 0.00 | 0.00 | 0.00 | 37 | 1008.1 |
| 20260504030043 | 15 | 32 | 30.6 | 38.6 | 0.00 | 0.00 | 0.00 | 37 | 1008.0 |
| 20260504025514 | 16 | 29 | 29.0 | 38.6 | 0.00 | 0.00 | 0.00 | 37 | 1007.9 |
| 20260504025013 | 16 | 34 | 30.6 | 38.6 | 0.00 | 0.00 | 0.00 | 37 | 1007.9 |
| 20260504024539 | 16 | 33 | 24.1 | 33.8 | 0.00 | 0.00 | 0.00 | 36 | 1007.9 |
| 20260504024013 | 16 | 28 | 24.1 | 33.8 | 0.00 | 0.00 | 0.00 | 34 | 1007.8 |
| 20260504023514 | 16 | 33 | 17.7 | 25.7 | 0.00 | 0.00 | 0.00 | 32 | 1007.8 |
| 20260504023039 | 17 | 29 | 19.3 | 25.7 | 0.00 | 0.00 | 0.00 | 30 | 1007.6 |
| 20260504022512 | 17 | 33 | 14.5 | 24.1 | 0.00 | 0.00 | 0.00 | 25 | 1007.8 |
| 20260504022014 | 17 | 5 | 8.0 | 12.9 | 0.00 | 0.00 | 0.00 | 24 | 1007.6 |
| 20260504021535 | 18 | 10 | 6.4 | 12.9 | 0.00 | 0.00 | 0.00 | 24 | 1007.7 |
| 20260504021015 | 18 | 5 | 6.4 | 16.1 | 0.00 | 0.00 | 0.00 | 23 | 1007.6 |
| 20260504020514 | 18 | 13 | 11.3 | 17.7 | 0.00 | 0.00 | 0.00 | 23 | 1007.4 |
| 20260504020037 | 19 | 5 | 11.3 | 22.5 | 0.00 | 0.00 | 0.00 | 22 | 1007.5 |
| 20260504015513 | 19 | 9 | 16.1 | 24.1 | 0.00 | 0.00 | 0.00 | 22 | 1007.8 |
| 20260504015011 | 20 | 360 | 17.7 | 32.2 | 0.00 | 0.00 | 0.00 | 21 | 1007.8 |
| 20260504014553 | 20 | 360 | 20.9 | 32.2 | 0.00 | 0.00 | 0.00 | 21 | 1007.7 |
| 20260504014012 | 20 | 345 | 17.7 | 30.6 | 0.00 | 0.00 | 0.00 | 21 | 1007.8 |
| 20260504013519 | 20 | 5 | 24.1 | 30.6 | 0.00 | 0.00 | 0.00 | 21 | 1007.7 |
| 20260504013038 | 20 | 352 | 20.9 | 30.6 | 0.00 | 0.00 | 0.00 | 21 | 1007.7 |
| 20260504012515 | 21 | 352 | 24.1 | 30.6 | 0.00 | 0.00 | 0.00 | 21 | 1007.8 |
| 20260504012020 | 21 | 351 | 24.1 | 32.2 | 0.00 | 0.00 | 0.00 | 20 | 1007.8 |
| 20260504011542 | 21 | 352 | 25.7 | 32.2 | 0.00 | 0.00 | 0.00 | 21 | 1007.6 |
| 20260504011014 | 21 | 342 | 20.9 | 33.8 | 0.00 | 0.00 | 0.00 | 21 | 1007.7 |
| 20260504010513 | 21 | 340 | 24.1 | 33.8 | 0.00 | 0.00 | 0.00 | 21 | 1007.8 |
| 20260504010038 | 21 | 326 | 24.1 | 35.4 | 0.00 | 0.00 | 0.00 | 21 | 1007.8 |
| 20260504005511 | 21 | 336 | 24.1 | 35.4 | 0.00 | 0.00 | 0.00 | 21 | 1008.0 |
| 20260504005014 | 22 | 348 | 25.7 | 35.4 | 0.00 | 0.00 | 0.00 | 20 | 1008.0 |
| 20260504004537 | 22 | 338 | 22.5 | 33.8 | 0.00 | 0.00 | 0.00 | 21 | 1008.0 |
| 20260504004013 | 22 | 346 | 24.1 | 33.8 | 0.00 | 0.00 | 0.00 | 20 | 1008.2 |
| 20260504003512 | 22 | 315 | 20.9 | 40.2 | 0.00 | 0.00 | 0.00 | 21 | 1008.3 |
| 20260504003050 | 22 | 346 | 25.7 | 40.2 | 0.00 | 0.00 | 0.00 | 20 | 1008.3 |
| 20260504002515 | 22 | 338 | 24.1 | 32.2 | 0.00 | 0.00 | 0.00 | 20 | 1008.4 |
| 20260504002015 | 22 | 338 | 24.1 | 33.8 | 0.00 | 0.00 | 0.00 | 20 | 1008.4 |
| 20260504001542 | 22 | 323 | 16.1 | 37.0 | 0.00 | 0.00 | 0.00 | 20 | 1008.3 |
| 20260504001013 | 22 | 5 | 25.7 | 37.0 | 0.00 | 0.00 | 0.00 | 20 | 1008.6 |
| 20260504000512 | 22 | 338 | 20.9 | 29.0 | 0.00 | 0.00 | 0.00 | 20 | 1008.3 |
| 20260504000049 | 22 | 313 | 20.9 | 43.5 | 0.00 | 0.00 | 0.00 | 20 | 1008.6 |
| 20260503235513 | 22 | 321 | 29.0 | 43.5 | 0.00 | 0.00 | 0.00 | 20 | 1008.3 |
| 20260503235013 | 22 | 331 | 25.7 | 35.4 | 0.00 | 0.00 | 0.00 | 19 | 1008.4 |
| 20260503234546 | 22 | 327 | 24.1 | 38.6 | 0.00 | 0.00 | 0.00 | 20 | 1008.3 |
| 20260503234016 | 22 | 334 | 8.0 | 43.5 | 0.00 | 0.00 | 0.00 | 20 | 1008.4 |
| 20260503233513 | 22 | 338 | 35.4 | 43.5 | 0.00 | 0.00 | 0.00 | 20 | 1008.3 |
| 20260503233043 | 22 | 319 | 19.3 | 35.4 | 0.00 | 0.00 | 0.00 | 20 | 1008.4 |
| 20260503232515 | 22 | 329 | 25.7 | 40.2 | 0.00 | 0.00 | 0.00 | 19 | 1008.3 |
| 20260503232015 | 22 | 311 | 30.6 | 40.2 | 0.00 | 0.00 | 0.00 | 19 | 1008.5 |
| 20260503231545 | 22 | 337 | 20.9 | 37.0 | 0.00 | 0.00 | 0.00 | 19 | 1008.6 |
| 20260503231018 | 22 | 306 | 25.7 | 43.5 | 0.00 | 0.00 | 0.00 | 19 | 1008.7 |
| 20260503230516 | 22 | 313 | 32.2 | 43.5 | 0.00 | 0.00 | 0.00 | 19 | 1008.9 |
| 20260503230044 | 22 | 338 | 17.7 | 38.6 | 0.00 | 0.00 | 0.00 | 20 | 1008.1 |
| 20260503225520 | 22 | 334 | 22.5 | 37.0 | 0.00 | 0.00 | 0.00 | 19 | 1008.7 |
| 20260503225015 | 22 | 311 | 25.7 | 37.0 | 0.00 | 0.00 | 0.00 | 19 | 1008.8 |
| 20260503224538 | 22 | 283 | 24.1 | 45.1 | 0.00 | 0.00 | 0.00 | 19 | 1008.7 |
| 20260503224015 | 22 | 322 | 29.0 | 45.1 | 0.00 | 0.00 | 0.00 | 19 | 1008.7 |
| 20260503223521 | 22 | 306 | 19.3 | 35.4 | 0.00 | 0.00 | 0.00 | 19 | 1009.0 |
| 20260503223041 | 22 | 277 | 19.3 | 35.4 | 0.00 | 0.00 | 0.00 | 19 | 1008.9 |
| 20260503222515 | 22 | 332 | 22.5 | 37.0 | 0.00 | 0.00 | 0.00 | 20 | 1008.9 |
| 20260503222017 | 22 | 325 | 27.4 | 37.0 | 0.00 | 0.00 | 0.00 | 20 | 1009.1 |
| 20260503221548 | 22 | 298 | 25.7 | 33.8 | 0.00 | 0.00 | 0.00 | 20 | 1009.2 |
| 20260503221018 | 22 | 265 | 16.1 | 40.2 | 0.00 | 0.00 | 0.00 | 21 | 1009.2 |
| 20260503220519 | 22 | 270 | 27.4 | 40.2 | 0.00 | 0.00 | 0.00 | 20 | 1009.3 |
| 20260503220047 | 22 | 304 | 20.9 | 40.2 | 0.00 | 0.00 | 0.00 | 20 | 1009.4 |
| 20260503215519 | 22 | 321 | 29.0 | 40.2 | 0.00 | 0.00 | 0.00 | 20 | 1009.4 |
| 20260503215015 | 22 | 323 | 25.7 | 38.6 | 0.00 | 0.00 | 0.00 | 20 | 1009.3 |
| 20260503214535 | 22 | 311 | 24.1 | 40.2 | 0.00 | 0.00 | 0.00 | 20 | 1009.3 |
| 20260503214013 | 22 | 286 | 20.9 | 38.6 | 0.00 | 0.00 | 0.00 | 21 | 1009.4 |
| 20260503213515 | 22 | 290 | 25.7 | 66.0 | 0.00 | 0.00 | 0.00 | 21 | 1009.6 |
| 20260503213050 | 22 | 278 | 25.7 | 66.0 | 0.00 | 0.00 | 0.00 | 20 | 1009.4 |
| 20260503212513 | 22 | 338 | 27.4 | 37.0 | 0.00 | 0.00 | 0.00 | 20 | 1009.7 |
| 20260503212015 | 22 | 327 | 22.5 | 35.4 | 0.00 | 0.00 | 0.00 | 20 | 1009.9 |
| 20260503211544 | 22 | 264 | 17.7 | 37.0 | 0.00 | 0.00 | 0.00 | 21 | 1010.1 |
| 20260503211015 | 22 | 304 | 24.1 | 37.0 | 0.00 | 0.00 | 0.00 | 21 | 1010.0 |
| 20260503210515 | 21 | 260 | 20.9 | 49.9 | 0.00 | 0.00 | 0.00 | 21 | 1010.1 |
| 20260503210042 | 21 | 321 | 24.1 | 49.9 | 0.00 | 0.00 | 0.00 | 21 | 1010.1 |
| 20260503205515 | 21 | 319 | 32.2 | 41.8 | 0.00 | 0.00 | 0.00 | 21 | 1010.4 |
| 20260503205016 | 22 | 275 | 19.3 | 41.8 | 0.00 | 0.00 | 0.00 | 22 | 1010.3 |
| 20260503204547 | 21 | 261 | 17.7 | 35.4 | 0.00 | 0.00 | 0.00 | 22 | 1010.4 |
| 20260503204014 | 21 | 262 | 17.7 | 38.6 | 0.00 | 0.00 | 0.00 | 20 | 1010.4 |
| 20260503203515 | 21 | 293 | 25.7 | 38.6 | 0.00 | 0.00 | 0.00 | 21 | 1010.4 |
| 20260503203037 | 21 | 301 | 24.1 | 37.0 | 0.00 | 0.00 | 0.00 | 21 | 1010.7 |
| 20260503202515 | 21 | 306 | 24.1 | 37.0 | 0.00 | 0.00 | 0.00 | 22 | 1010.5 |
| 20260503202013 | 21 | 324 | 24.1 | 37.0 | 0.00 | 0.00 | 0.00 | 21 | 1010.6 |
| 20260503201544 | 21 | 297 | 22.5 | 37.0 | 0.00 | 0.00 | 0.00 | 21 | 1011.0 |
| 20260503201015 | 21 | 258 | 20.9 | 35.4 | 0.00 | 0.00 | 0.00 | 22 | 1010.9 |
| 20260503200517 | 21 | 329 | 24.1 | 35.4 | 0.00 | 0.00 | 0.00 | 21 | 1011.0 |
| 20260503200037 | 20 | 319 | 19.3 | 40.2 | 0.00 | 0.00 | 0.00 | 23 | 1011.2 |
| 20260503195514 | 20 | 269 | 30.6 | 41.8 | 0.00 | 0.00 | 0.00 | 22 | 1011.0 |
| 20260503195016 | 20 | 259 | 19.3 | 41.8 | 0.00 | 0.00 | 0.00 | 22 | 1011.0 |
| 20260503194545 | 20 | 265 | 20.9 | 38.6 | 0.00 | 0.00 | 0.00 | 23 | 1011.2 |
| 20260503194015 | 20 | 252 | 17.7 | 38.6 | 0.00 | 0.00 | 0.00 | 24 | 1011.3 |
| 20260503193518 | 21 | 273 | 25.7 | 38.6 | 0.00 | 0.00 | 0.00 | 23 | 1011.2 |
| 20260503193049 | 20 | 313 | 20.9 | 38.6 | 0.00 | 0.00 | 0.00 | 22 | 1011.5 |
| 20260503192514 | 21 | 315 | 27.4 | 38.6 | 0.00 | 0.00 | 0.00 | 22 | 1011.1 |
| 20260503192015 | 20 | 309 | 25.7 | 37.0 | 0.00 | 0.00 | 0.00 | 22 | 1011.4 |
| 20260503191538 | 20 | 266 | 22.5 | 37.0 | 0.00 | 0.00 | 0.00 | 23 | 1011.5 |
| 20260503191016 | 20 | 307 | 29.0 | 37.0 | 0.00 | 0.00 | 0.00 | 21 | 1011.6 |
| 20260503190517 | 20 | 292 | 29.0 | 37.0 | 0.00 | 0.00 | 0.00 | 21 | 1011.5 |
| 20260503190051 | 20 | 278 | 20.9 | 37.0 | 0.00 | 0.00 | 0.00 | 23 | 1011.7 |
| 20260503185514 | 20 | 352 | 6.4 | 29.0 | 0.00 | 0.00 | 0.00 | 23 | 1011.7 |
| 20260503185014 | 20 | 274 | 17.7 | 29.0 | 0.00 | 0.00 | 0.00 | 23 | 1012.0 |
| 20260503184555 | 20 | 242 | 6.4 | 30.6 | 0.00 | 0.00 | 0.00 | 23 | 1012.0 |
| 20260503184013 | 20 | 322 | 14.5 | 33.8 | 0.00 | 0.00 | 0.00 | 22 | 1012.0 |
| 20260503183515 | 20 | 341 | 19.3 | 37.0 | 0.00 | 0.00 | 0.00 | 22 | 1011.8 |
| 20260503183056 | 20 | 267 | 24.1 | 33.8 | 0.00 | 0.00 | 0.00 | 23 | 1012.0 |
| 20260503182516 | 20 | 280 | 14.5 | 37.0 | 0.00 | 0.00 | 0.00 | 23 | 1012.0 |
| 20260503182016 | 20 | 268 | 19.3 | 37.0 | 0.00 | 0.00 | 0.00 | 21 | 1012.1 |
| 20260503181558 | 20 | 269 | 19.3 | 33.8 | 0.00 | 0.00 | 0.00 | 23 | 1012.2 |
| 20260503181014 | 20 | 345 | 25.7 | 33.8 | 0.00 | 0.00 | 0.00 | 23 | 1012.1 |
| 20260503180514 | 20 | 283 | 11.3 | 38.6 | 0.00 | 0.00 | 0.00 | 24 | 1012.3 |
| 20260503180050 | 20 | 311 | 19.3 | 38.6 | 0.00 | 0.00 | 0.00 | 23 | 1012.4 |
| 20260503175512 | 20 | 293 | 25.7 | 40.2 | 0.00 | 0.00 | 0.00 | 24 | 1012.1 |
| 20260503175018 | 20 | 352 | 27.4 | 40.2 | 0.00 | 0.00 | 0.00 | 23 | 1012.4 |
| 20260503174546 | 20 | 329 | 14.5 | 27.4 | 0.00 | 0.00 | 0.00 | 25 | 1012.3 |
| 20260503174015 | 20 | 277 | 9.7 | 37.0 | 0.00 | 0.00 | 0.00 | 24 | 1012.4 |
| 20260503173519 | 19 | 331 | 24.1 | 37.0 | 0.00 | 0.00 | 0.00 | 25 | 1012.4 |
| 20260503173056 | 19 | 316 | 19.3 | 33.8 | 0.00 | 0.00 | 0.00 | 25 | 1012.4 |
| 20260503172516 | 19 | 244 | 17.7 | 29.0 | 0.00 | 0.00 | 0.00 | 25 | 1012.5 |
| 20260503172019 | 20 | 244 | 20.9 | 27.4 | 0.00 | 0.00 | 0.00 | 25 | 1012.5 |
| 20260503171547 | 19 | 309 | 6.4 | 14.5 | 0.00 | 0.00 | 0.00 | 28 | 1012.7 |
| 20260503171016 | 18 | 297 | 6.4 | 29.0 | 0.00 | 0.00 | 0.00 | 27 | 1012.8 |
| 20260503170517 | 18 | 331 | 20.9 | 29.0 | 0.00 | 0.00 | 0.00 | 27 | 1012.8 |